Time;durP1;ratioP1;P1;durP2;ratioP2;P2;SDS_P1;SDS_P2;PMS_P1;PMS_P2;Temp;Humidity;BMP_temperature;BMP_pressure;BME280_temperature;BME280_humidity;BME280_pressure;Samples;Min_cycle;Max_cycle;Signal;HPM_P1;HPM_P2
2022/04/30 00:00:09;;;;;;;;;;;20.30;35.80;;;;;;5062451;28;20357;-49
2022/04/30 00:02:36;;;;;;;;;;;20.30;35.80;;;;;;5050088;28;19952;-50
2022/04/30 00:05:03;;;;;;;;;;;20.30;35.80;;;;;;5037135;28;19979;-53
2022/04/30 00:07:31;;;;;;;;;;;20.30;35.80;;;;;;5052793;28;19983;-53
2022/04/30 00:09:58;;;;;;;;;;;20.30;35.80;;;;;;5043692;28;19948;-51
2022/04/30 00:12:25;;;;;;;;;;;20.30;35.80;;;;;;5057790;28;19921;-49
2022/04/30 00:14:52;;;;;;;;;;;20.30;35.80;;;;;;5058722;28;19920;-49
2022/04/30 00:17:18;;;;;;;;;;;20.30;35.80;;;;;;5060617;28;20265;-52
2022/04/30 00:19:45;;;;;;;;;;;20.30;35.70;;;;;;5055368;28;19964;-53
2022/04/30 00:22:12;;;;;;;;;;;20.30;35.70;;;;;;5055386;28;19933;-52
2022/04/30 00:24:40;;;;;;;;;;;20.30;35.70;;;;;;5065624;28;19920;-54
2022/04/30 00:27:06;;;;;;;;;;;20.30;35.80;;;;;;5065543;28;20016;-53
2022/04/30 00:29:33;;;;;;;;;;;20.30;35.80;;;;;;5054764;28;20380;-51
2022/04/30 00:32:01;;;;;;;;;;;20.30;35.70;;;;;;5046901;28;20245;-51
2022/04/30 00:34:28;;;;;;;;;;;20.30;35.70;;;;;;5052726;28;19928;-52
2022/04/30 00:36:55;;;;;;;;;;;20.30;35.80;;;;;;5034754;28;19921;-53
2022/04/30 00:39:22;;;;;;;;;;;20.30;35.70;;;;;;5034930;28;19927;-55
2022/04/30 00:41:50;;;;;;;;;;;20.30;35.70;;;;;;5048050;28;19986;-54
2022/04/30 00:44:17;;;;;;;;;;;20.30;35.70;;;;;;5056901;28;19932;-52
2022/04/30 00:46:44;;;;;;;;;;;20.30;35.80;;;;;;5057986;28;19920;-51
2022/04/30 00:49:11;;;;;;;;;;;20.30;35.70;;;;;;5056235;28;19927;-53
2022/04/30 00:51:38;;;;;;;;;;;20.30;35.70;;;;;;5056169;28;19944;-48
2022/04/30 00:54:05;;;;;;;;;;;20.30;36.30;;;;;;5056381;28;20043;-50
2022/04/30 00:56:33;;;;;;;;;;;20.30;35.70;;;;;;5069365;28;19920;-48
2022/04/30 00:59:02;;;;;;;;;;;20.30;35.70;;;;;;5056251;28;19921;-49
2022/04/30 01:01:29;;;;;;;;;;;20.30;35.70;;;;;;5066237;28;19921;-48
2022/04/30 01:03:56;;;;;;;;;;;20.30;35.70;;;;;;5057150;28;19946;-52
2022/04/30 01:06:24;;;;;;;;;;;20.30;35.70;;;;;;5057279;28;19921;-50
2022/04/30 01:08:50;;;;;;;;;;;20.30;35.80;;;;;;5055328;28;19946;-52
2022/04/30 01:11:17;;;;;;;;;;;20.30;35.70;;;;;;5041690;28;20464;-48
2022/04/30 01:13:44;;;;;;;;;;;20.30;35.70;;;;;;5064239;28;19959;-57
2022/04/30 01:16:12;;;;;;;;;;;20.30;35.70;;;;;;5067702;28;19921;-46
2022/04/30 01:18:39;;;;;;;;;;;20.30;35.70;;;;;;5071735;28;19925;-47
2022/04/30 01:21:08;;;;;;;;;;;20.30;35.70;;;;;;5060760;28;19933;-51
2022/04/30 01:23:36;;;;;;;;;;;20.30;35.70;;;;;;5057059;28;19959;-51
2022/04/30 01:26:03;;;;;;;;;;;20.30;35.70;;;;;;5049856;28;20389;-51
2022/04/30 01:28:29;;;;;;;;;;;20.30;35.70;;;;;;5049238;28;20288;-49
2022/04/30 01:30:56;;;;;;;;;;;20.30;35.70;;;;;;5058110;28;19925;-49
2022/04/30 01:38:53;;;;;;;;;;;20.30;35.70;;;;;;5057715;28;19973;-54
2022/04/30 01:41:21;;;;;;;;;;;20.30;35.70;;;;;;5055435;28;20361;-53
2022/04/30 01:43:49;;;;;;;;;;;20.30;35.70;;;;;;5068732;28;19928;-47
2022/04/30 01:46:15;;;;;;;;;;;20.30;35.70;;;;;;5053430;28;19921;-51
2022/04/30 01:48:42;;;;;;;;;;;20.30;35.70;;;;;;5039705;28;20035;-49
2022/04/30 01:51:08;;;;;;;;;;;20.30;35.70;;;;;;5067603;28;19932;-46
2022/04/30 01:53:36;;;;;;;;;;;20.20;35.60;;;;;;5057009;28;20249;-49
2022/04/30 01:56:05;;;;;;;;;;;20.30;35.70;;;;;;5055982;28;19947;-50
2022/04/30 01:58:31;;;;;;;;;;;20.30;35.70;;;;;;5056350;28;20352;-51
2022/04/30 02:00:58;;;;;;;;;;;20.30;35.70;;;;;;5054765;28;19924;-48
2022/04/30 02:03:26;;;;;;;;;;;20.30;35.70;;;;;;5036712;28;20282;-47
2022/04/30 02:05:52;;;;;;;;;;;20.30;35.70;;;;;;5060579;28;19920;-52
2022/04/30 02:08:20;;;;;;;;;;;20.30;35.70;;;;;;5055320;28;19973;-49
2022/04/30 02:10:47;;;;;;;;;;;20.30;35.70;;;;;;5055261;28;19925;-52
2022/04/30 02:13:15;;;;;;;;;;;20.30;35.70;;;;;;5055329;28;19992;-52
2022/04/30 02:15:42;;;;;;;;;;;20.30;35.70;;;;;;5044899;28;19927;-48
2022/04/30 02:18:12;;;;;;;;;;;20.30;35.70;;;;;;5052435;28;19959;-49
2022/04/30 02:20:41;;;;;;;;;;;20.30;35.70;;;;;;5060395;28;19920;-51
2022/04/30 02:23:09;;;;;;;;;;;20.30;35.70;;;;;;5043506;28;19924;-55
2022/04/30 02:25:36;;;;;;;;;;;20.30;35.70;;;;;;5039493;28;19924;-50
2022/04/30 02:28:04;;;;;;;;;;;20.30;35.70;;;;;;5054423;28;19947;-51
2022/04/30 02:30:35;;;;;;;;;;;20.30;36.30;;;;;;5054287;28;19920;-50
2022/04/30 02:33:04;;;;;;;;;;;20.20;35.60;;;;;;5057932;28;19928;-50
2022/04/30 02:35:33;;;;;;;;;;;20.20;35.70;;;;;;5053877;28;19921;-52
2022/04/30 02:38:00;;;;;;;;;;;20.20;35.60;;;;;;5043976;28;20221;-52
2022/04/30 02:40:29;;;;;;;;;;;20.30;35.70;;;;;;5053755;28;19933;-52
2022/04/30 02:42:57;;;;;;;;;;;20.20;35.60;;;;;;5038061;28;20385;-53
2022/04/30 02:45:24;;;;;;;;;;;20.30;35.70;;;;;;5050296;28;19924;-48
2022/04/30 02:47:55;;;;;;;;;;;20.20;35.70;;;;;;5056337;28;19924;-52
2022/04/30 02:50:22;;;;;;;;;;;20.30;35.70;;;;;;5070610;28;19924;-47
2022/04/30 02:52:49;;;;;;;;;;;20.20;35.70;;;;;;5038710;28;19925;-53
2022/04/30 02:55:16;;;;;;;;;;;20.20;35.60;;;;;;5035873;28;19925;-50
2022/04/30 02:59:53;;;;;;;;;;;20.20;35.60;;;;;;5050516;28;20009;-52
2022/04/30 03:00:31;;;;;;;;;;;20.20;35.60;;;;;;5045741;28;20070;-55
2022/04/30 03:02:59;;;;;;;;;;;20.20;35.60;;;;;;5072182;28;19978;-52
2022/04/30 03:05:26;;;;;;;;;;;20.20;35.60;;;;;;5071824;28;20338;-52
2022/04/30 03:07:53;;;;;;;;;;;20.20;35.60;;;;;;5061844;28;19925;-47
2022/04/30 03:10:20;;;;;;;;;;;20.20;35.60;;;;;;5053324;28;19935;-50
2022/04/30 03:12:47;;;;;;;;;;;20.20;35.60;;;;;;5071130;28;19956;-54
2022/04/30 03:15:14;;;;;;;;;;;20.20;35.60;;;;;;5054141;28;20090;-49
2022/04/30 03:23:10;;;;;;;;;;;20.20;35.60;;;;;;5036604;28;19947;-50
2022/04/30 03:25:37;;;;;;;;;;;20.20;35.60;;;;;;5045779;28;19921;-48
2022/04/30 03:28:04;;;;;;;;;;;20.20;35.60;;;;;;5072379;28;20011;-49
2022/04/30 03:30:31;;;;;;;;;;;20.20;35.60;;;;;;5055346;28;19926;-51
2022/04/30 03:32:57;;;;;;;;;;;20.20;35.60;;;;;;5058587;28;19921;-50
2022/04/30 03:35:25;;;;;;;;;;;20.20;35.60;;;;;;5053056;28;19921;-52
2022/04/30 03:37:53;;;;;;;;;;;20.20;35.60;;;;;;5050081;28;19920;-52
2022/04/30 03:40:19;;;;;;;;;;;20.20;35.60;;;;;;5034505;28;19952;-50
2022/04/30 03:42:46;;;;;;;;;;;20.20;35.60;;;;;;5053530;28;19932;-51
2022/04/30 03:45:13;;;;;;;;;;;20.20;35.60;;;;;;5051145;28;19921;-51
2022/04/30 03:47:40;;;;;;;;;;;20.20;35.60;;;;;;5051114;28;19920;-53
2022/04/30 03:50:07;;;;;;;;;;;20.20;35.60;;;;;;5052173;28;19920;-52
2022/04/30 03:52:33;;;;;;;;;;;20.20;35.60;;;;;;5053158;28;19921;-48
2022/04/30 03:55:02;;;;;;;;;;;20.20;35.60;;;;;;5036108;28;19921;-49
2022/04/30 03:57:29;;;;;;;;;;;20.20;35.60;;;;;;5040747;28;19929;-49
2022/04/30 03:59:56;;;;;;;;;;;20.20;35.60;;;;;;5054196;28;20297;-49
2022/04/30 04:02:23;;;;;;;;;;;20.20;35.60;;;;;;5066964;28;20385;-49
2022/04/30 04:04:51;;;;;;;;;;;20.20;35.60;;;;;;5055070;28;19927;-49
2022/04/30 04:07:18;;;;;;;;;;;20.20;35.60;;;;;;5055545;28;19920;-50
2022/04/30 04:09:45;;;;;;;;;;;20.20;35.60;;;;;;5046172;28;19970;-50
2022/04/30 04:12:13;;;;;;;;;;;20.20;35.60;;;;;;5052172;28;19967;-53
2022/04/30 04:17:39;;;;;;;;;;;20.20;35.60;;;;;;5057580;28;19927;-51
2022/04/30 04:20:06;;;;;;;;;;;20.20;35.60;;;;;;5048031;28;19931;-53
2022/04/30 04:22:33;;;;;;;;;;;20.20;35.60;;;;;;5054059;28;19920;-50
2022/04/30 04:27:46;;;;;;;;;;;20.20;35.60;;;;;;5054894;28;19920;-49
2022/04/30 04:30:12;;;;;;;;;;;20.20;35.60;;;;;;5043665;28;19927;-48
2022/04/30 04:32:39;;;;;;;;;;;20.20;35.60;;;;;;5050037;28;19928;-51
2022/04/30 04:35:06;;;;;;;;;;;20.20;35.60;;;;;;5067438;28;19969;-53
2022/04/30 04:37:33;;;;;;;;;;;20.20;35.60;;;;;;5040432;28;20015;-48
2022/04/30 04:39:59;;;;;;;;;;;20.20;35.60;;;;;;5057109;28;19921;-50
2022/04/30 04:42:26;;;;;;;;;;;20.20;35.60;;;;;;5059357;28;19978;-52
2022/04/30 04:44:54;;;;;;;;;;;20.20;35.60;;;;;;5056192;28;19925;-51
2022/04/30 04:47:21;;;;;;;;;;;20.20;35.60;;;;;;5067367;28;20316;-47
2022/04/30 04:49:48;;;;;;;;;;;20.20;35.60;;;;;;5059300;28;20258;-47
2022/04/30 04:52:15;;;;;;;;;;;20.20;35.60;;;;;;5072464;28;19921;-49
2022/04/30 04:54:41;;;;;;;;;;;20.20;35.60;;;;;;5057858;28;19921;-49
2022/04/30 04:57:08;;;;;;;;;;;20.20;35.60;;;;;;5072961;28;19920;-49
2022/04/30 04:59:35;;;;;;;;;;;20.20;35.50;;;;;;5055856;28;19921;-52
2022/04/30 05:02:03;;;;;;;;;;;20.20;35.60;;;;;;5055182;28;19971;-47
2022/04/30 05:04:31;;;;;;;;;;;20.20;35.60;;;;;;5064433;28;20008;-48
2022/04/30 05:06:58;;;;;;;;;;;20.20;36.20;;;;;;5049067;28;19920;-49
2022/04/30 05:09:26;;;;;;;;;;;20.20;35.60;;;;;;5057090;28;19925;-54
2022/04/30 05:11:52;;;;;;;;;;;20.20;35.60;;;;;;5053793;28;19966;-52
2022/04/30 05:14:19;;;;;;;;;;;20.20;35.60;;;;;;5068943;28;19920;-48
2022/04/30 05:16:45;;;;;;;;;;;20.20;35.60;;;;;;5067027;28;19924;-50
2022/04/30 05:19:13;;;;;;;;;;;20.20;35.60;;;;;;5049502;28;19963;-50
2022/04/30 05:21:40;;;;;;;;;;;20.20;35.60;;;;;;5063809;28;20335;-48
2022/04/30 05:24:07;;;;;;;;;;;20.20;35.60;;;;;;5037665;28;19924;-51
2022/04/30 05:26:34;;;;;;;;;;;20.20;35.60;;;;;;5057904;28;19925;-46
2022/04/30 05:29:01;;;;;;;;;;;20.20;35.60;;;;;;5058111;28;20145;-47
2022/04/30 05:31:27;;;;;;;;;;;20.20;35.60;;;;;;5058193;28;19954;-47
2022/04/30 05:33:54;;;;;;;;;;;20.20;35.60;;;;;;5050994;28;19975;-51
2022/04/30 05:36:22;;;;;;;;;;;20.20;35.60;;;;;;5057967;28;19924;-50
2022/04/30 05:38:48;;;;;;;;;;;20.20;35.60;;;;;;5039029;28;19950;-46
2022/04/30 05:41:15;;;;;;;;;;;20.20;35.60;;;;;;5054187;28;20325;-55
2022/04/30 05:43:42;;;;;;;;;;;20.20;35.60;;;;;;5060052;28;20273;-53
2022/04/30 05:46:08;;;;;;;;;;;20.20;35.60;;;;;;5037884;28;20318;-47
2022/04/30 05:48:35;;;;;;;;;;;20.20;35.60;;;;;;5073940;28;19931;-48
2022/04/30 05:51:02;;;;;;;;;;;20.20;35.60;;;;;;5046466;28;19921;-51
2022/04/30 05:53:31;;;;;;;;;;;20.20;35.60;;;;;;5042763;28;19932;-53
2022/04/30 05:55:57;;;;;;;;;;;20.20;35.60;;;;;;5050734;28;19925;-51
2022/04/30 05:58:24;;;;;;;;;;;20.20;35.60;;;;;;5041896;28;19951;-51
2022/04/30 06:00:51;;;;;;;;;;;20.20;35.60;;;;;;5059070;28;20386;-49
2022/04/30 06:03:17;;;;;;;;;;;20.20;35.60;;;;;;5052013;28;19950;-49
2022/04/30 06:05:44;;;;;;;;;;;20.20;35.60;;;;;;5068759;28;19925;-49
2022/04/30 06:08:11;;;;;;;;;;;20.20;35.60;;;;;;5053738;28;19927;-47
2022/04/30 06:10:39;;;;;;;;;;;20.20;35.60;;;;;;5050293;28;19963;-51
2022/04/30 06:13:06;;;;;;;;;;;20.20;35.60;;;;;;5043440;28;19920;-53
2022/04/30 06:15:33;;;;;;;;;;;20.20;35.60;;;;;;5073352;28;19956;-48
2022/04/30 06:17:59;;;;;;;;;;;20.20;35.60;;;;;;5064517;28;19936;-50
2022/04/30 06:20:26;;;;;;;;;;;20.20;35.60;;;;;;5057277;28;20129;-51
2022/04/30 06:22:53;;;;;;;;;;;20.20;35.60;;;;;;5056533;28;19967;-53
2022/04/30 06:25:19;;;;;;;;;;;20.20;35.60;;;;;;5074976;28;20365;-49
2022/04/30 06:27:47;;;;;;;;;;;20.20;35.60;;;;;;5057215;28;20317;-50
2022/04/30 06:30:14;;;;;;;;;;;20.20;35.60;;;;;;5052699;28;19921;-49
2022/04/30 06:32:41;;;;;;;;;;;20.20;35.60;;;;;;5060593;28;19963;-50
2022/04/30 06:35:08;;;;;;;;;;;20.20;35.60;;;;;;5051591;28;19925;-53
2022/04/30 06:37:35;;;;;;;;;;;20.20;36.20;;;;;;5059783;28;19948;-51
2022/04/30 06:40:01;;;;;;;;;;;20.20;35.60;;;;;;5055948;28;19927;-54
2022/04/30 06:42:28;;;;;;;;;;;20.20;35.60;;;;;;5046823;28;19928;-51
2022/04/30 06:44:56;;;;;;;;;;;20.20;35.60;;;;;;5044701;28;19992;-54
2022/04/30 06:47:23;;;;;;;;;;;20.20;35.60;;;;;;5040746;28;19951;-52
2022/04/30 06:49:51;;;;;;;;;;;20.20;35.60;;;;;;5055973;28;19920;-54
2022/04/30 06:52:18;;;;;;;;;;;20.20;35.60;;;;;;5036341;28;19987;-52
2022/04/30 06:57:30;;;;;;;;;;;20.20;35.60;;;;;;5039103;28;19933;-53
2022/04/30 06:59:59;;;;;;;;;;;20.20;35.60;;;;;;5036554;28;19972;-51
2022/04/30 07:02:31;;;;;;;;;;;20.20;35.60;;;;;;5054583;28;20378;-51
2022/04/30 07:04:59;;;;;;;;;;;20.30;35.70;;;;;;5052697;28;19927;-52
2022/04/30 07:07:26;;;;;;;;;;;20.20;35.60;;;;;;5057713;28;19986;-53
2022/04/30 07:09:52;;;;;;;;;;;20.20;35.60;;;;;;5049288;28;19921;-51
2022/04/30 07:12:19;;;;;;;;;;;20.20;35.60;;;;;;5056774;28;19925;-51
2022/04/30 07:14:48;;;;;;;;;;;20.20;35.60;;;;;;5062974;28;20024;-52
2022/04/30 07:17:17;;;;;;;;;;;20.20;35.60;;;;;;5053597;28;19971;-48
2022/04/30 07:19:44;;;;;;;;;;;20.20;35.60;;;;;;5073725;28;19956;-52
2022/04/30 07:22:11;;;;;;;;;;;20.20;35.60;;;;;;5052866;28;19925;-51
2022/04/30 07:24:37;;;;;;;;;;;20.20;35.60;;;;;;5057399;28;19925;-51
2022/04/30 07:27:05;;;;;;;;;;;20.20;35.60;;;;;;5056549;28;19931;-54
2022/04/30 07:29:32;;;;;;;;;;;20.20;35.60;;;;;;5074420;28;19959;-55
2022/04/30 07:31:59;;;;;;;;;;;20.20;35.60;;;;;;5046758;28;19925;-52
2022/04/30 07:34:28;;;;;;;;;;;20.30;35.70;;;;;;5037531;28;20015;-53
2022/04/30 07:36:55;;;;;;;;;;;20.30;35.70;;;;;;5064406;28;19928;-55
2022/04/30 07:39:21;;;;;;;;;;;20.20;35.60;;;;;;5051259;28;19927;-49
2022/04/30 07:41:49;;;;;;;;;;;20.20;35.60;;;;;;5056239;28;19924;-52
2022/04/30 07:44:16;;;;;;;;;;;20.30;35.70;;;;;;5055584;28;19921;-49
2022/04/30 07:46:43;;;;;;;;;;;20.30;35.70;;;;;;5055381;28;19927;-56
2022/04/30 07:49:10;;;;;;;;;;;20.20;35.60;;;;;;5048708;28;19936;-51
2022/04/30 07:51:52;;;;;;;;;;;20.20;35.60;;;;;;5062188;28;19933;-55
2022/04/30 07:54:19;;;;;;;;;;;20.20;35.60;;;;;;5057643;28;19925;-47
2022/04/30 07:56:46;;;;;;;;;;;20.20;35.60;;;;;;5059897;28;20246;-50
2022/04/30 07:59:12;;;;;;;;;;;20.30;35.70;;;;;;5070899;28;19927;-52
2022/04/30 08:01:39;;;;;;;;;;;20.30;35.70;;;;;;5078155;28;19920;-50
2022/04/30 08:04:06;;;;;;;;;;;20.20;35.60;;;;;;5059208;28;19924;-49
2022/04/30 08:06:32;;;;;;;;;;;20.20;35.60;;;;;;5064204;28;19948;-47
2022/04/30 08:09:00;;;;;;;;;;;20.30;35.70;;;;;;5054917;28;19920;-53
2022/04/30 08:11:27;;;;;;;;;;;20.20;35.70;;;;;;5057103;28;19943;-50
2022/04/30 08:13:54;;;;;;;;;;;20.20;35.70;;;;;;5066944;28;19989;-48
2022/04/30 08:16:21;;;;;;;;;;;20.30;35.80;;;;;;5067869;28;19963;-49
2022/04/30 08:18:47;;;;;;;;;;;20.20;35.60;;;;;;5059858;28;19974;-51
2022/04/30 08:21:14;;;;;;;;;;;20.30;35.70;;;;;;5054964;28;20023;-50
2022/04/30 08:23:41;;;;;;;;;;;20.30;35.70;;;;;;5043784;28;19932;-51
2022/04/30 08:26:09;;;;;;;;;;;20.30;35.70;;;;;;5057190;28;20349;-55
2022/04/30 08:28:35;;;;;;;;;;;20.30;35.70;;;;;;5056454;28;19921;-53
2022/04/30 08:31:02;;;;;;;;;;;20.30;35.70;;;;;;5058627;28;20269;-52
2022/04/30 08:33:29;;;;;;;;;;;20.30;35.70;;;;;;5058466;28;19927;-51
2022/04/30 08:35:56;;;;;;;;;;;20.30;35.70;;;;;;5077124;28;19920;-54
2022/04/30 08:38:23;;;;;;;;;;;20.30;35.70;;;;;;5074327;28;20328;-49
2022/04/30 08:40:50;;;;;;;;;;;20.30;35.70;;;;;;5058650;28;19920;-49
2022/04/30 08:43:18;;;;;;;;;;;20.30;35.80;;;;;;5071313;28;19921;-50
2022/04/30 08:45:45;;;;;;;;;;;20.30;35.70;;;;;;5056309;28;19921;-53
2022/04/30 08:48:12;;;;;;;;;;;20.30;35.70;;;;;;5039427;28;19927;-53
2022/04/30 08:50:40;;;;;;;;;;;20.30;35.80;;;;;;5058559;28;19925;-50
2022/04/30 08:53:06;;;;;;;;;;;20.30;35.70;;;;;;5052004;28;19920;-52
2022/04/30 08:55:33;;;;;;;;;;;20.30;35.80;;;;;;5076167;28;20015;-50
2022/04/30 08:58:00;;;;;;;;;;;20.30;35.70;;;;;;5066187;28;19960;-56
2022/04/30 09:00:28;;;;;;;;;;;20.30;35.70;;;;;;5035104;28;19921;-54
2022/04/30 09:02:56;;;;;;;;;;;20.30;35.70;;;;;;5053734;28;19925;-50
2022/04/30 09:05:22;;;;;;;;;;;20.30;35.70;;;;;;5068734;28;20000;-50
2022/04/30 09:07:53;;;;;;;;;;;20.30;35.70;;;;;;5036983;28;20554;-51
2022/04/30 09:10:21;;;;;;;;;;;20.30;35.70;;;;;;5054939;28;20635;-52
2022/04/30 09:12:48;;;;;;;;;;;20.30;35.70;;;;;;5056214;28;20317;-51
2022/04/30 09:15:15;;;;;;;;;;;20.30;35.70;;;;;;5041376;28;19921;-54
2022/04/30 09:17:44;;;;;;;;;;;20.30;35.70;;;;;;5038415;28;19925;-50
2022/04/30 09:20:17;;;;;;;;;;;20.30;35.70;;;;;;5070281;28;19925;-51
2022/04/30 09:22:44;;;;;;;;;;;20.30;35.70;;;;;;5058141;28;19925;-51
2022/04/30 09:25:12;;;;;;;;;;;20.30;35.70;;;;;;5058093;28;19972;-48
2022/04/30 09:27:43;;;;;;;;;;;20.30;35.70;;;;;;5054296;28;20012;-52
2022/04/30 09:30:14;;;;;;;;;;;20.30;35.70;;;;;;5057635;28;19920;-51
2022/04/30 09:32:41;;;;;;;;;;;20.30;35.70;;;;;;5057114;28;19931;-52
2022/04/30 09:38:03;;;;;;;;;;;20.30;35.70;;;;;;5054869;28;20337;-52
2022/04/30 09:40:30;;;;;;;;;;;20.30;35.70;;;;;;5046372;28;19974;-50
2022/04/30 09:42:57;;;;;;;;;;;20.30;35.70;;;;;;5040895;28;19967;-57
2022/04/30 09:45:33;;;;;;;;;;;20.30;35.70;;;;;;5044971;28;19966;-53
2022/04/30 09:48:01;;;;;;;;;;;20.30;35.70;;;;;;5052545;28;19928;-51
2022/04/30 09:56:00;;;;;;;;;;;20.30;35.70;;;;;;5037198;28;20070;-52
2022/04/30 09:58:27;;;;;;;;;;;20.30;35.70;;;;;;5053707;28;19924;-52
2022/04/30 10:00:54;;;;;;;;;;;20.30;35.70;;;;;;5065873;28;19921;-51
2022/04/30 10:03:22;;;;;;;;;;;20.30;35.70;;;;;;5057111;28;19921;-50
2022/04/30 10:05:50;;;;;;;;;;;20.30;35.70;;;;;;5041233;28;20413;-51
2022/04/30 10:08:17;;;;;;;;;;;20.30;35.70;;;;;;5035943;28;20306;-52
2022/04/30 10:10:46;;;;;;;;;;;20.30;35.70;;;;;;5048604;28;19931;-49
2022/04/30 10:13:13;;;;;;;;;;;20.30;35.70;;;;;;5052600;28;19932;-55
2022/04/30 10:15:42;;;;;;;;;;;20.30;35.70;;;;;;5040789;28;19960;-51
2022/04/30 10:18:10;;;;;;;;;;;20.30;35.70;;;;;;5035782;28;19925;-55
2022/04/30 10:20:37;;;;;;;;;;;20.30;35.70;;;;;;5045519;28;20273;-52
2022/04/30 10:23:06;;;;;;;;;;;20.30;35.70;;;;;;5052116;28;20697;-54
2022/04/30 10:25:33;;;;;;;;;;;20.30;35.70;;;;;;5068087;28;19942;-49
2022/04/30 10:28:01;;;;;;;;;;;20.30;35.70;;;;;;5046838;28;19928;-48
2022/04/30 10:30:28;;;;;;;;;;;20.30;35.70;;;;;;5050983;28;20392;-49
2022/04/30 10:32:55;;;;;;;;;;;20.30;36.30;;;;;;5053141;28;20416;-56
2022/04/30 10:35:28;;;;;;;;;;;20.30;35.70;;;;;;5060917;28;20429;-50
2022/04/30 10:37:54;;;;;;;;;;;20.30;35.60;;;;;;5052620;28;19967;-51
2022/04/30 10:40:23;;;;;;;;;;;20.30;35.70;;;;;;5058677;28;20004;-53
2022/04/30 10:42:50;;;;;;;;;;;20.30;35.70;;;;;;5057242;28;19934;-50
2022/04/30 10:45:17;;;;;;;;;;;20.30;35.60;;;;;;5065691;28;20003;-51
2022/04/30 10:47:53;;;;;;;;;;;20.30;35.70;;;;;;5050847;28;19921;-54
2022/04/30 10:50:19;;;;;;;;;;;20.30;35.60;;;;;;5055726;28;20388;-52
2022/04/30 10:52:46;;;;;;;;;;;20.30;35.60;;;;;;5052546;28;19928;-54
2022/04/30 10:55:13;;;;;;;;;;;20.30;35.70;;;;;;5050144;28;19979;-50
2022/04/30 10:57:42;;;;;;;;;;;20.30;35.60;;;;;;5043512;28;19931;-54
2022/04/30 11:00:11;;;;;;;;;;;20.30;35.60;;;;;;5066271;28;20612;-50
2022/04/30 11:02:38;;;;;;;;;;;20.30;35.60;;;;;;5070081;28;19928;-50
2022/04/30 11:05:05;;;;;;;;;;;20.30;35.60;;;;;;5049152;28;20365;-50
2022/04/30 11:07:32;;;;;;;;;;;20.30;35.60;;;;;;5050132;28;19921;-53
2022/04/30 11:09:59;;;;;;;;;;;20.30;35.60;;;;;;5051019;28;19933;-55
2022/04/30 11:12:31;;;;;;;;;;;20.30;35.60;;;;;;5042554;28;19947;-52
2022/04/30 11:14:59;;;;;;;;;;;20.30;35.60;;;;;;5033754;28;19957;-51
2022/04/30 11:17:26;;;;;;;;;;;20.30;35.60;;;;;;5063981;28;19963;-54
2022/04/30 11:19:55;;;;;;;;;;;20.30;35.60;;;;;;5059237;28;20323;-53
2022/04/30 11:22:22;;;;;;;;;;;20.30;35.60;;;;;;5054681;28;19952;-53
2022/04/30 11:24:50;;;;;;;;;;;20.30;35.60;;;;;;5052157;28;19921;-54
2022/04/30 11:27:16;;;;;;;;;;;20.30;35.60;;;;;;5050157;28;19929;-53
2022/04/30 11:29:50;;;;;;;;;;;20.30;35.60;;;;;;5051824;28;20028;-53
2022/04/30 11:32:21;;;;;;;;;;;20.30;35.60;;;;;;5050387;28;19932;-51
2022/04/30 11:34:48;;;;;;;;;;;20.30;35.60;;;;;;5052134;28;19982;-50
2022/04/30 11:37:15;;;;;;;;;;;20.30;35.60;;;;;;5054215;28;19927;-55
2022/04/30 11:39:41;;;;;;;;;;;20.30;35.60;;;;;;5052164;28;20369;-51
2022/04/30 11:42:09;;;;;;;;;;;20.30;35.60;;;;;;5036473;28;19927;-56
2022/04/30 11:44:35;;;;;;;;;;;20.30;35.60;;;;;;5056230;28;19920;-55
2022/04/30 11:47:02;;;;;;;;;;;20.30;35.60;;;;;;5054060;28;19963;-49
2022/04/30 11:49:30;;;;;;;;;;;20.30;35.60;;;;;;5046834;28;19921;-52
2022/04/30 11:51:57;;;;;;;;;;;20.30;35.60;;;;;;5052953;28;19927;-52
2022/04/30 11:54:24;;;;;;;;;;;20.30;35.60;;;;;;5071054;28;19978;-52
2022/04/30 11:56:52;;;;;;;;;;;20.30;35.60;;;;;;5040099;28;20393;-53
2022/04/30 11:59:28;;;;;;;;;;;20.30;35.60;;;;;;5038253;28;19982;-51
2022/04/30 12:01:54;;;;;;;;;;;20.30;35.60;;;;;;5049912;28;20012;-51
2022/04/30 12:04:22;;;;;;;;;;;20.30;35.60;;;;;;5037338;28;19974;-52
2022/04/30 12:06:58;;;;;;;;;;;20.30;35.60;;;;;;5037561;28;19925;-49
2022/04/30 12:09:30;;;;;;;;;;;20.30;35.60;;;;;;5035226;28;20486;-53
2022/04/30 12:11:57;;;;;;;;;;;20.30;35.60;;;;;;5053836;28;19920;-51
2022/04/30 12:14:24;;;;;;;;;;;20.30;35.60;;;;;;5053213;28;19921;-51
2022/04/30 12:16:51;;;;;;;;;;;20.30;35.60;;;;;;5041228;28;19921;-49
2022/04/30 12:25:02;;;;;;;;;;;20.30;35.60;;;;;;5056168;28;19952;-51
2022/04/30 12:27:29;;;;;;;;;;;20.30;35.60;;;;;;5053683;28;20321;-51
2022/04/30 12:30:09;;;;;;;;;;;20.40;35.70;;;;;;5055937;28;19927;-52
2022/04/30 12:32:46;;;;;;;;;;;20.30;35.60;;;;;;5056454;28;19921;-54
2022/04/30 12:35:13;;;;;;;;;;;20.30;35.60;;;;;;5046860;28;20380;-48
2022/04/30 12:37:41;;;;;;;;;;;20.30;35.60;;;;;;5055533;28;19989;-47
2022/04/30 12:40:09;;;;;;;;;;;20.30;35.60;;;;;;5055600;28;19924;-56
2022/04/30 12:42:37;;;;;;;;;;;20.30;35.60;;;;;;5055589;28;19921;-53
2022/04/30 12:45:31;;;;;;;;;;;20.30;35.20;;;;;;5063056;28;19928;-52
2022/04/30 12:47:58;;;;;;;;;;;20.30;34.90;;;;;;5058051;28;19921;-47
2022/04/30 12:50:25;;;;;;;;;;;20.30;35.00;;;;;;5045316;28;19920;-53
2022/04/30 12:52:53;;;;;;;;;;;20.30;35.00;;;;;;5039648;28;19928;-51
2022/04/30 12:55:20;;;;;;;;;;;20.30;35.00;;;;;;5054907;28;19924;-50
2022/04/30 12:57:46;;;;;;;;;;;20.30;35.00;;;;;;5049870;28;19970;-56
2022/04/30 13:00:14;;;;;;;;;;;20.30;35.00;;;;;;5042131;28;19979;-51
2022/04/30 13:02:41;;;;;;;;;;;20.30;35.00;;;;;;5062426;28;19921;-46
2022/04/30 13:05:08;;;;;;;;;;;20.30;35.10;;;;;;5049774;28;19920;-57
2022/04/30 13:07:35;;;;;;;;;;;20.30;35.10;;;;;;5042076;28;19967;-54
2022/04/30 13:15:31;;;;;;;;;;;20.30;34.60;;;;;;5078058;28;20389;-47
2022/04/30 13:17:58;;;;;;;;;;;20.30;34.60;;;;;;5057983;28;19998;-46
2022/04/30 13:20:25;;;;;;;;;;;20.30;34.50;;;;;;5060326;28;20358;-50
2022/04/30 13:22:53;;;;;;;;;;;20.20;34.30;;;;;;5056478;28;19946;-45
2022/04/30 13:25:21;;;;;;;;;;;20.20;34.30;;;;;;5054883;28;19920;-48
2022/04/30 13:27:48;;;;;;;;;;;20.20;34.20;;;;;;5072009;28;19925;-50
2022/04/30 13:30:15;;;;;;;;;;;20.20;34.10;;;;;;5070756;28;20350;-50
2022/04/30 13:32:41;;;;;;;;;;;20.10;34.00;;;;;;5070980;28;19925;-51
2022/04/30 13:35:08;;;;;;;;;;;20.10;34.00;;;;;;5072135;28;19977;-48
2022/04/30 13:37:40;;;;;;;;;;;20.10;34.10;;;;;;5073448;28;19920;-49
2022/04/30 13:40:07;;;;;;;;;;;20.10;34.10;;;;;;5065246;28;19920;-47
2022/04/30 13:42:35;;;;;;;;;;;20.10;34.20;;;;;;5053454;28;19967;-52
2022/04/30 13:45:02;;;;;;;;;;;20.10;34.20;;;;;;5070773;28;19928;-50
2022/04/30 13:47:29;;;;;;;;;;;20.10;34.20;;;;;;5053063;28;20026;-52
2022/04/30 13:49:56;;;;;;;;;;;20.10;34.20;;;;;;5049798;28;19921;-54
2022/04/30 13:52:23;;;;;;;;;;;20.10;34.20;;;;;;5055581;28;19927;-51
2022/04/30 13:54:49;;;;;;;;;;;20.10;34.20;;;;;;5051500;28;19931;-47
2022/04/30 13:57:16;;;;;;;;;;;20.10;34.00;;;;;;5050078;28;20340;-49
2022/04/30 13:59:44;;;;;;;;;;;20.00;34.00;;;;;;5055987;28;19924;-51
2022/04/30 14:02:11;;;;;;;;;;;20.00;34.00;;;;;;5040492;28;19928;-50
2022/04/30 14:04:38;;;;;;;;;;;20.00;34.10;;;;;;5039187;28;20039;-48
2022/04/30 14:07:04;;;;;;;;;;;20.10;34.10;;;;;;5044418;28;19928;-50
2022/04/30 14:09:31;;;;;;;;;;;20.10;34.10;;;;;;5063243;28;20428;-51
2022/04/30 14:11:57;;;;;;;;;;;20.10;34.10;;;;;;5059400;28;19924;-48
2022/04/30 14:19:50;;;;;;;;;;;20.10;34.20;;;;;;5051102;28;20078;-47
2022/04/30 14:22:17;;;;;;;;;;;20.10;34.20;;;;;;5051082;28;20266;-53
2022/04/30 14:24:44;;;;;;;;;;;20.10;34.20;;;;;;5032747;28;20268;-48
2022/04/30 14:27:11;;;;;;;;;;;20.10;34.20;;;;;;5042929;28;19929;-52
2022/04/30 14:29:38;;;;;;;;;;;20.10;34.10;;;;;;5034763;28;19921;-48
2022/04/30 14:32:05;;;;;;;;;;;20.10;34.20;;;;;;5048556;28;19978;-50
2022/04/30 14:34:34;;;;;;;;;;;20.10;34.20;;;;;;5049780;28;20403;-50
2022/04/30 14:37:00;;;;;;;;;;;20.10;34.20;;;;;;5050919;28;19920;-51
2022/04/30 14:39:27;;;;;;;;;;;20.10;34.20;;;;;;5049318;28;20362;-50
2022/04/30 14:41:54;;;;;;;;;;;20.10;34.20;;;;;;5058540;28;20012;-50
2022/04/30 14:44:21;;;;;;;;;;;20.10;34.20;;;;;;5051030;28;20408;-45
2022/04/30 14:46:47;;;;;;;;;;;20.10;34.20;;;;;;5061560;28;20006;-44
2022/04/30 14:49:14;;;;;;;;;;;20.10;34.30;;;;;;5037022;28;19920;-48
2022/04/30 14:51:42;;;;;;;;;;;20.10;34.30;;;;;;5036172;28;19920;-45
2022/04/30 14:54:09;;;;;;;;;;;20.10;34.30;;;;;;5048886;28;19921;-50
2022/04/30 14:56:35;;;;;;;;;;;20.10;34.30;;;;;;5053004;28;19924;-48
2022/04/30 14:59:04;;;;;;;;;;;20.10;34.30;;;;;;5053932;28;19920;-47
2022/04/30 15:01:30;;;;;;;;;;;20.10;34.30;;;;;;5049340;28;20019;-45